sensor_id;sensor_type;location;lat;lon;timestamp;temperature;humidity
37300;DHT22;23184;51.902;12.836;2023-07-29T00:01:05;17.50;99.90
37300;DHT22;23184;51.902;12.836;2023-07-29T00:03:30;17.50;99.90
37300;DHT22;23184;51.902;12.836;2023-07-29T00:05:57;17.40;99.90
37300;DHT22;23184;51.902;12.836;2023-07-29T00:08:22;17.40;99.90
37300;DHT22;23184;51.902;12.836;2023-07-29T00:10:48;17.30;99.90
37300;DHT22;23184;51.902;12.836;2023-07-29T00:13:14;17.30;99.90
37300;DHT22;23184;51.902;12.836;2023-07-29T00:15:39;17.30;99.90
37300;DHT22;23184;51.902;12.836;2023-07-29T00:18:05;17.20;99.90
37300;DHT22;23184;51.902;12.836;2023-07-29T00:20:30;17.30;99.90
37300;DHT22;23184;51.902;12.836;2023-07-29T00:22:56;17.30;99.90
37300;DHT22;23184;51.902;12.836;2023-07-29T00:25:23;17.20;99.90
37300;DHT22;23184;51.902;12.836;2023-07-29T00:27:48;17.20;99.90
37300;DHT22;23184;51.902;12.836;2023-07-29T00:30:14;17.20;99.90
37300;DHT22;23184;51.902;12.836;2023-07-29T00:32:40;17.10;99.90
37300;DHT22;23184;51.902;12.836;2023-07-29T00:35:06;17.10;99.90
37300;DHT22;23184;51.902;12.836;2023-07-29T00:37:31;17.10;99.90
37300;DHT22;23184;51.902;12.836;2023-07-29T00:39:57;17.00;99.90
37300;DHT22;23184;51.902;12.836;2023-07-29T00:42:23;16.90;99.90
37300;DHT22;23184;51.902;12.836;2023-07-29T00:44:49;16.90;99.90
37300;DHT22;23184;51.902;12.836;2023-07-29T00:47:15;16.90;99.90
37300;DHT22;23184;51.902;12.836;2023-07-29T00:49:43;16.90;99.90
37300;DHT22;23184;51.902;12.836;2023-07-29T00:52:09;16.90;99.90
37300;DHT22;23184;51.902;12.836;2023-07-29T00:54:38;16.90;99.90
37300;DHT22;23184;51.902;12.836;2023-07-29T00:57:04;16.80;99.90
37300;DHT22;23184;51.902;12.836;2023-07-29T00:59:30;16.80;99.90
37300;DHT22;23184;51.902;12.836;2023-07-29T01:01:57;16.70;99.90
37300;DHT22;23184;51.902;12.836;2023-07-29T01:04:23;16.70;99.90
37300;DHT22;23184;51.902;12.836;2023-07-29T01:07:15;16.60;99.90
37300;DHT22;23184;51.902;12.836;2023-07-29T01:09:52;16.60;99.90
37300;DHT22;23184;51.902;12.836;2023-07-29T01:12:29;16.60;99.90
37300;DHT22;23184;51.902;12.836;2023-07-29T01:17:36;16.70;99.90
37300;DHT22;23184;51.902;12.836;2023-07-29T01:20:09;16.70;99.90
37300;DHT22;23184;51.902;12.836;2023-07-29T01:22:37;16.80;99.90
37300;DHT22;23184;51.902;12.836;2023-07-29T01:25:04;16.90;99.90
37300;DHT22;23184;51.902;12.836;2023-07-29T01:27:30;16.90;99.90
37300;DHT22;23184;51.902;12.836;2023-07-29T01:29:57;16.90;99.90
37300;DHT22;23184;51.902;12.836;2023-07-29T01:32:43;16.90;99.90
37300;DHT22;23184;51.902;12.836;2023-07-29T01:37:51;17.10;99.90
37300;DHT22;23184;51.902;12.836;2023-07-29T01:40:18;17.10;99.90
37300;DHT22;23184;51.902;12.836;2023-07-29T01:42:44;17.10;99.90
37300;DHT22;23184;51.902;12.836;2023-07-29T01:45:11;17.10;99.90
37300;DHT22;23184;51.902;12.836;2023-07-29T01:47:36;17.00;99.90
37300;DHT22;23184;51.902;12.836;2023-07-29T01:50:06;16.90;99.90
37300;DHT22;23184;51.902;12.836;2023-07-29T01:52:31;16.90;99.90
37300;DHT22;23184;51.902;12.836;2023-07-29T01:54:57;16.90;99.90
37300;DHT22;23184;51.902;12.836;2023-07-29T01:57:22;16.80;99.90
37300;DHT22;23184;51.902;12.836;2023-07-29T01:59:48;16.80;99.90
37300;DHT22;23184;51.902;12.836;2023-07-29T02:02:13;16.70;99.90
37300;DHT22;23184;51.902;12.836;2023-07-29T02:04:39;16.70;99.90
37300;DHT22;23184;51.902;12.836;2023-07-29T02:07:04;16.60;99.90
37300;DHT22;23184;51.902;12.836;2023-07-29T02:09:30;16.60;99.90
37300;DHT22;23184;51.902;12.836;2023-07-29T02:11:57;16.60;99.90
37300;DHT22;23184;51.902;12.836;2023-07-29T02:14:23;16.60;99.90
37300;DHT22;23184;51.902;12.836;2023-07-29T02:16:48;16.60;99.90
37300;DHT22;23184;51.902;12.836;2023-07-29T02:19:14;16.70;99.90
37300;DHT22;23184;51.902;12.836;2023-07-29T02:21:40;16.70;99.90
37300;DHT22;23184;51.902;12.836;2023-07-29T02:24:05;16.70;99.90
37300;DHT22;23184;51.902;12.836;2023-07-29T02:26:31;16.80;99.90
37300;DHT22;23184;51.902;12.836;2023-07-29T02:28:56;16.80;99.90
37300;DHT22;23184;51.902;12.836;2023-07-29T02:31:23;16.80;99.90
37300;DHT22;23184;51.902;12.836;2023-07-29T02:33:50;16.90;99.90
37300;DHT22;23184;51.902;12.836;2023-07-29T02:36:16;17.00;99.90
37300;DHT22;23184;51.902;12.836;2023-07-29T02:38:42;17.00;99.90
37300;DHT22;23184;51.902;12.836;2023-07-29T02:41:09;17.10;99.90
37300;DHT22;23184;51.902;12.836;2023-07-29T02:43:36;17.10;99.90
37300;DHT22;23184;51.902;12.836;2023-07-29T02:46:02;17.20;99.90
37300;DHT22;23184;51.902;12.836;2023-07-29T02:48:28;17.20;99.90
37300;DHT22;23184;51.902;12.836;2023-07-29T02:50:54;17.20;99.90
37300;DHT22;23184;51.902;12.836;2023-07-29T02:53:20;17.30;99.90
37300;DHT22;23184;51.902;12.836;2023-07-29T02:55:45;17.30;99.90
37300;DHT22;23184;51.902;12.836;2023-07-29T02:58:11;17.30;99.90
37300;DHT22;23184;51.902;12.836;2023-07-29T03:00:36;17.30;99.90
37300;DHT22;23184;51.902;12.836;2023-07-29T03:03:02;17.40;99.90
37300;DHT22;23184;51.902;12.836;2023-07-29T03:05:28;17.40;99.90
37300;DHT22;23184;51.902;12.836;2023-07-29T03:07:53;17.40;99.90
37300;DHT22;23184;51.902;12.836;2023-07-29T03:10:19;17.40;99.90
37300;DHT22;23184;51.902;12.836;2023-07-29T03:12:45;17.40;99.90
37300;DHT22;23184;51.902;12.836;2023-07-29T03:15:12;17.40;99.90
37300;DHT22;23184;51.902;12.836;2023-07-29T03:17:37;17.40;99.90
37300;DHT22;23184;51.902;12.836;2023-07-29T03:20:03;17.40;99.90
37300;DHT22;23184;51.902;12.836;2023-07-29T03:22:28;17.30;99.90
37300;DHT22;23184;51.902;12.836;2023-07-29T03:24:54;17.30;99.90
37300;DHT22;23184;51.902;12.836;2023-07-29T03:27:19;17.30;99.90
37300;DHT22;23184;51.902;12.836;2023-07-29T03:29:45;17.30;99.90
37300;DHT22;23184;51.902;12.836;2023-07-29T03:32:11;17.30;99.90
37300;DHT22;23184;51.902;12.836;2023-07-29T03:34:37;17.20;99.90
37300;DHT22;23184;51.902;12.836;2023-07-29T03:37:04;17.10;99.90
37300;DHT22;23184;51.902;12.836;2023-07-29T03:39:29;17.10;99.90
37300;DHT22;23184;51.902;12.836;2023-07-29T03:41:55;17.00;99.90
37300;DHT22;23184;51.902;12.836;2023-07-29T03:44:20;17.00;99.90
37300;DHT22;23184;51.902;12.836;2023-07-29T03:46:46;17.00;99.90
37300;DHT22;23184;51.902;12.836;2023-07-29T03:49:11;17.00;99.90
37300;DHT22;23184;51.902;12.836;2023-07-29T03:51:37;16.90;99.90
37300;DHT22;23184;51.902;12.836;2023-07-29T03:54:02;16.90;99.90
37300;DHT22;23184;51.902;12.836;2023-07-29T03:56:28;16.90;99.90
37300;DHT22;23184;51.902;12.836;2023-07-29T03:58:53;16.90;99.90
37300;DHT22;23184;51.902;12.836;2023-07-29T04:01:27;16.80;99.90
37300;DHT22;23184;51.902;12.836;2023-07-29T04:03:52;16.80;99.90
37300;DHT22;23184;51.902;12.836;2023-07-29T04:06:18;16.80;99.90
37300;DHT22;23184;51.902;12.836;2023-07-29T04:08:43;16.90;99.90
37300;DHT22;23184;51.902;12.836;2023-07-29T04:11:09;16.90;99.90
37300;DHT22;23184;51.902;12.836;2023-07-29T04:13:34;16.90;99.90
37300;DHT22;23184;51.902;12.836;2023-07-29T04:16:00;17.00;99.90
37300;DHT22;23184;51.902;12.836;2023-07-29T04:18:25;17.10;99.90
37300;DHT22;23184;51.902;12.836;2023-07-29T04:20:51;17.20;99.90
37300;DHT22;23184;51.902;12.836;2023-07-29T04:23:17;17.20;99.90
37300;DHT22;23184;51.902;12.836;2023-07-29T04:25:42;17.30;99.90
37300;DHT22;23184;51.902;12.836;2023-07-29T04:28:08;17.40;99.90
37300;DHT22;23184;51.902;12.836;2023-07-29T04:30:33;17.50;99.90
37300;DHT22;23184;51.902;12.836;2023-07-29T04:32:59;17.60;99.90
37300;DHT22;23184;51.902;12.836;2023-07-29T04:35:24;17.70;99.90
37300;DHT22;23184;51.902;12.836;2023-07-29T04:37:50;17.70;99.90
37300;DHT22;23184;51.902;12.836;2023-07-29T04:40:16;17.60;99.90
37300;DHT22;23184;51.902;12.836;2023-07-29T04:42:41;17.70;99.90
37300;DHT22;23184;51.902;12.836;2023-07-29T04:45:07;17.70;99.90
37300;DHT22;23184;51.902;12.836;2023-07-29T04:47:32;17.80;99.90
37300;DHT22;23184;51.902;12.836;2023-07-29T04:49:58;17.90;99.90
37300;DHT22;23184;51.902;12.836;2023-07-29T04:52:23;18.00;99.90
37300;DHT22;23184;51.902;12.836;2023-07-29T04:54:49;18.00;99.90
37300;DHT22;23184;51.902;12.836;2023-07-29T04:57:14;18.10;99.90
37300;DHT22;23184;51.902;12.836;2023-07-29T04:59:40;18.20;99.90
37300;DHT22;23184;51.902;12.836;2023-07-29T05:02:05;18.20;99.90
37300;DHT22;23184;51.902;12.836;2023-07-29T05:04:31;18.20;99.90
37300;DHT22;23184;51.902;12.836;2023-07-29T05:06:56;18.20;99.90
37300;DHT22;23184;51.902;12.836;2023-07-29T05:09:22;18.30;99.90
37300;DHT22;23184;51.902;12.836;2023-07-29T05:11:48;18.30;99.90
37300;DHT22;23184;51.902;12.836;2023-07-29T05:14:15;18.40;99.90
37300;DHT22;23184;51.902;12.836;2023-07-29T05:16:41;18.40;99.90
37300;DHT22;23184;51.902;12.836;2023-07-29T05:19:06;18.50;99.90
37300;DHT22;23184;51.902;12.836;2023-07-29T05:21:32;18.60;99.90
37300;DHT22;23184;51.902;12.836;2023-07-29T05:23:58;18.60;99.90
37300;DHT22;23184;51.902;12.836;2023-07-29T05:26:23;18.70;99.90
37300;DHT22;23184;51.902;12.836;2023-07-29T05:28:49;18.80;99.90
37300;DHT22;23184;51.902;12.836;2023-07-29T05:31:14;18.80;99.90
37300;DHT22;23184;51.902;12.836;2023-07-29T05:33:40;18.90;99.90
37300;DHT22;23184;51.902;12.836;2023-07-29T05:36:05;18.90;99.90
37300;DHT22;23184;51.902;12.836;2023-07-29T05:38:31;19.00;99.90
37300;DHT22;23184;51.902;12.836;2023-07-29T05:40:57;19.10;99.90
37300;DHT22;23184;51.902;12.836;2023-07-29T05:43:24;19.10;99.90
37300;DHT22;23184;51.902;12.836;2023-07-29T05:45:50;19.20;99.90
37300;DHT22;23184;51.902;12.836;2023-07-29T05:48:16;19.30;99.90
37300;DHT22;23184;51.902;12.836;2023-07-29T05:50:42;19.30;99.90
37300;DHT22;23184;51.902;12.836;2023-07-29T05:53:07;19.40;99.90
37300;DHT22;23184;51.902;12.836;2023-07-29T05:55:33;19.50;99.90
37300;DHT22;23184;51.902;12.836;2023-07-29T05:57:59;19.60;99.90
37300;DHT22;23184;51.902;12.836;2023-07-29T06:00:24;19.70;99.90
37300;DHT22;23184;51.902;12.836;2023-07-29T06:02:50;19.80;99.90
37300;DHT22;23184;51.902;12.836;2023-07-29T06:05:15;19.90;99.90
37300;DHT22;23184;51.902;12.836;2023-07-29T06:07:41;20.00;99.90
37300;DHT22;23184;51.902;12.836;2023-07-29T06:10:14;20.10;99.90
37300;DHT22;23184;51.902;12.836;2023-07-29T06:12:43;20.40;99.90
37300;DHT22;23184;51.902;12.836;2023-07-29T06:15:08;20.60;99.90
37300;DHT22;23184;51.902;12.836;2023-07-29T06:17:34;20.80;99.90
37300;DHT22;23184;51.902;12.836;2023-07-29T06:20:00;20.70;99.90
37300;DHT22;23184;51.902;12.836;2023-07-29T06:22:25;20.70;99.90
37300;DHT22;23184;51.902;12.836;2023-07-29T06:24:51;20.70;99.90
37300;DHT22;23184;51.902;12.836;2023-07-29T06:27:16;20.70;99.90
37300;DHT22;23184;51.902;12.836;2023-07-29T06:29:42;20.60;99.90
37300;DHT22;23184;51.902;12.836;2023-07-29T06:32:07;20.60;99.90
37300;DHT22;23184;51.902;12.836;2023-07-29T06:34:33;20.80;99.90
37300;DHT22;23184;51.902;12.836;2023-07-29T06:36:58;20.80;99.90
37300;DHT22;23184;51.902;12.836;2023-07-29T06:39:24;20.90;99.90
37300;DHT22;23184;51.902;12.836;2023-07-29T06:41:49;20.90;99.90
37300;DHT22;23184;51.902;12.836;2023-07-29T06:44:15;21.00;99.90
37300;DHT22;23184;51.902;12.836;2023-07-29T06:46:40;21.20;99.90
37300;DHT22;23184;51.902;12.836;2023-07-29T06:49:06;21.40;99.90
37300;DHT22;23184;51.902;12.836;2023-07-29T06:51:31;21.50;99.90
37300;DHT22;23184;51.902;12.836;2023-07-29T06:54:00;21.30;99.90
37300;DHT22;23184;51.902;12.836;2023-07-29T06:56:25;21.60;99.90
37300;DHT22;23184;51.902;12.836;2023-07-29T06:58:51;21.80;99.90
37300;DHT22;23184;51.902;12.836;2023-07-29T07:01:16;21.90;99.90
37300;DHT22;23184;51.902;12.836;2023-07-29T07:03:42;22.20;99.90
37300;DHT22;23184;51.902;12.836;2023-07-29T07:06:08;22.10;99.90
37300;DHT22;23184;51.902;12.836;2023-07-29T07:08:33;22.10;99.90
37300;DHT22;23184;51.902;12.836;2023-07-29T07:10:59;22.20;99.90
37300;DHT22;23184;51.902;12.836;2023-07-29T07:13:24;22.50;99.90
37300;DHT22;23184;51.902;12.836;2023-07-29T07:15:50;22.50;99.90
37300;DHT22;23184;51.902;12.836;2023-07-29T07:18:15;22.40;99.90
37300;DHT22;23184;51.902;12.836;2023-07-29T07:20:41;22.50;99.90
37300;DHT22;23184;51.902;12.836;2023-07-29T07:23:06;22.20;99.90
37300;DHT22;23184;51.902;12.836;2023-07-29T07:25:36;22.10;99.90
37300;DHT22;23184;51.902;12.836;2023-07-29T07:28:02;21.80;99.90
37300;DHT22;23184;51.902;12.836;2023-07-29T07:30:27;21.70;99.90
37300;DHT22;23184;51.902;12.836;2023-07-29T07:32:53;21.80;99.90
37300;DHT22;23184;51.902;12.836;2023-07-29T07:35:18;22.30;99.90
37300;DHT22;23184;51.902;12.836;2023-07-29T07:37:44;22.60;99.90
37300;DHT22;23184;51.902;12.836;2023-07-29T07:40:10;22.70;99.90
37300;DHT22;23184;51.902;12.836;2023-07-29T07:42:36;23.00;99.90
37300;DHT22;23184;51.902;12.836;2023-07-29T07:45:02;22.90;99.90
37300;DHT22;23184;51.902;12.836;2023-07-29T07:47:27;23.00;99.90
37300;DHT22;23184;51.902;12.836;2023-07-29T07:49:53;22.90;99.90
37300;DHT22;23184;51.902;12.836;2023-07-29T07:52:18;22.60;99.90
37300;DHT22;23184;51.902;12.836;2023-07-29T07:54:44;22.60;99.90
37300;DHT22;23184;51.902;12.836;2023-07-29T07:57:09;22.50;99.90
37300;DHT22;23184;51.902;12.836;2023-07-29T07:59:35;22.50;99.90
37300;DHT22;23184;51.902;12.836;2023-07-29T08:02:00;22.60;99.90
37300;DHT22;23184;51.902;12.836;2023-07-29T08:04:26;22.60;99.90
37300;DHT22;23184;51.902;12.836;2023-07-29T08:06:51;22.70;99.90
37300;DHT22;23184;51.902;12.836;2023-07-29T08:09:17;22.70;99.90
37300;DHT22;23184;51.902;12.836;2023-07-29T08:11:42;22.90;99.90
37300;DHT22;23184;51.902;12.836;2023-07-29T08:14:08;23.00;99.90
37300;DHT22;23184;51.902;12.836;2023-07-29T08:16:33;23.40;99.90
37300;DHT22;23184;51.902;12.836;2023-07-29T08:18:59;23.40;99.90
37300;DHT22;23184;51.902;12.836;2023-07-29T08:21:26;23.40;99.90
37300;DHT22;23184;51.902;12.836;2023-07-29T08:23:51;23.30;99.90
37300;DHT22;23184;51.902;12.836;2023-07-29T08:26:17;23.40;99.90
37300;DHT22;23184;51.902;12.836;2023-07-29T08:28:42;23.50;99.90
37300;DHT22;23184;51.902;12.836;2023-07-29T08:31:08;23.60;99.90
37300;DHT22;23184;51.902;12.836;2023-07-29T08:33:34;23.60;99.90
37300;DHT22;23184;51.902;12.836;2023-07-29T08:36:00;23.90;99.90
37300;DHT22;23184;51.902;12.836;2023-07-29T08:38:26;23.90;99.90
37300;DHT22;23184;51.902;12.836;2023-07-29T08:41:08;23.80;99.90
37300;DHT22;23184;51.902;12.836;2023-07-29T08:43:38;23.60;99.90
37300;DHT22;23184;51.902;12.836;2023-07-29T08:46:04;23.50;99.90
37300;DHT22;23184;51.902;12.836;2023-07-29T08:48:42;23.50;99.90
37300;DHT22;23184;51.902;12.836;2023-07-29T08:51:09;23.40;99.90
37300;DHT22;23184;51.902;12.836;2023-07-29T08:53:35;23.30;99.90
37300;DHT22;23184;51.902;12.836;2023-07-29T08:56:02;23.80;99.90
37300;DHT22;23184;51.902;12.836;2023-07-29T08:58:27;23.90;99.90
37300;DHT22;23184;51.902;12.836;2023-07-29T09:00:54;24.00;99.90
37300;DHT22;23184;51.902;12.836;2023-07-29T09:03:20;24.60;99.90
37300;DHT22;23184;51.902;12.836;2023-07-29T09:05:47;24.70;99.90
37300;DHT22;23184;51.902;12.836;2023-07-29T09:08:13;24.90;99.90
37300;DHT22;23184;51.902;12.836;2023-07-29T09:10:39;24.50;99.90
37300;DHT22;23184;51.902;12.836;2023-07-29T09:13:04;24.20;99.90
37300;DHT22;23184;51.902;12.836;2023-07-29T09:15:33;24.30;99.90
37300;DHT22;23184;51.902;12.836;2023-07-29T09:17:59;24.70;99.90
37300;DHT22;23184;51.902;12.836;2023-07-29T09:20:26;25.00;99.90
37300;DHT22;23184;51.902;12.836;2023-07-29T09:22:57;25.30;99.90
37300;DHT22;23184;51.902;12.836;2023-07-29T09:25:27;25.30;99.90
37300;DHT22;23184;51.902;12.836;2023-07-29T09:27:59;25.20;99.90
37300;DHT22;23184;51.902;12.836;2023-07-29T09:30:25;25.30;99.90
37300;DHT22;23184;51.902;12.836;2023-07-29T09:32:57;25.00;99.90
37300;DHT22;23184;51.902;12.836;2023-07-29T09:35:23;24.80;99.90
37300;DHT22;23184;51.902;12.836;2023-07-29T09:37:51;24.60;99.90
37300;DHT22;23184;51.902;12.836;2023-07-29T09:40:18;24.80;99.90
37300;DHT22;23184;51.902;12.836;2023-07-29T09:42:50;24.90;99.90
37300;DHT22;23184;51.902;12.836;2023-07-29T09:45:26;24.70;99.90
37300;DHT22;23184;51.902;12.836;2023-07-29T09:47:53;24.70;99.90
37300;DHT22;23184;51.902;12.836;2023-07-29T09:50:26;24.50;99.90
37300;DHT22;23184;51.902;12.836;2023-07-29T09:52:54;24.50;99.90
37300;DHT22;23184;51.902;12.836;2023-07-29T09:55:22;24.20;99.90
37300;DHT22;23184;51.902;12.836;2023-07-29T09:58:02;24.30;99.90
37300;DHT22;23184;51.902;12.836;2023-07-29T10:00:30;24.10;99.90
37300;DHT22;23184;51.902;12.836;2023-07-29T10:02:57;23.80;99.90
37300;DHT22;23184;51.902;12.836;2023-07-29T10:05:25;23.40;99.90
37300;DHT22;23184;51.902;12.836;2023-07-29T10:07:51;23.40;99.90
37300;DHT22;23184;51.902;12.836;2023-07-29T10:10:17;23.40;99.90
37300;DHT22;23184;51.902;12.836;2023-07-29T10:12:43;23.40;99.90
37300;DHT22;23184;51.902;12.836;2023-07-29T10:15:09;23.20;99.90
37300;DHT22;23184;51.902;12.836;2023-07-29T10:17:36;23.20;99.90
37300;DHT22;23184;51.902;12.836;2023-07-29T10:20:06;23.30;99.90
37300;DHT22;23184;51.902;12.836;2023-07-29T10:22:43;23.20;99.90
37300;DHT22;23184;51.902;12.836;2023-07-29T10:25:13;23.30;99.90
37300;DHT22;23184;51.902;12.836;2023-07-29T10:27:53;23.30;99.90
37300;DHT22;23184;51.902;12.836;2023-07-29T10:30:19;23.30;99.90
37300;DHT22;23184;51.902;12.836;2023-07-29T10:32:45;23.30;99.90
37300;DHT22;23184;51.902;12.836;2023-07-29T10:35:12;23.40;99.90
37300;DHT22;23184;51.902;12.836;2023-07-29T10:37:39;23.40;99.90
37300;DHT22;23184;51.902;12.836;2023-07-29T10:40:09;23.30;99.90
37300;DHT22;23184;51.902;12.836;2023-07-29T10:42:38;23.20;99.90
37300;DHT22;23184;51.902;12.836;2023-07-29T10:45:20;23.30;99.90
37300;DHT22;23184;51.902;12.836;2023-07-29T10:47:47;23.30;99.90
37300;DHT22;23184;51.902;12.836;2023-07-29T10:50:20;23.40;99.90
37300;DHT22;23184;51.902;12.836;2023-07-29T10:52:50;23.20;99.90
37300;DHT22;23184;51.902;12.836;2023-07-29T10:55:33;23.00;99.90
37300;DHT22;23184;51.902;12.836;2023-07-29T10:58:13;22.90;99.90
37300;DHT22;23184;51.902;12.836;2023-07-29T11:00:41;22.90;99.90
37300;DHT22;23184;51.902;12.836;2023-07-29T11:03:07;22.90;99.90
37300;DHT22;23184;51.902;12.836;2023-07-29T11:05:50;22.90;99.90
37300;DHT22;23184;51.902;12.836;2023-07-29T11:10:43;22.90;99.90
37300;DHT22;23184;51.902;12.836;2023-07-29T11:13:10;22.90;99.90
37300;DHT22;23184;51.902;12.836;2023-07-29T11:15:39;22.80;99.90
37300;DHT22;23184;51.902;12.836;2023-07-29T11:18:05;22.60;99.90
37300;DHT22;23184;51.902;12.836;2023-07-29T11:20:33;21.30;99.90
37300;DHT22;23184;51.902;12.836;2023-07-29T11:23:01;20.30;99.90
37300;DHT22;23184;51.902;12.836;2023-07-29T11:25:28;19.80;99.90
37300;DHT22;23184;51.902;12.836;2023-07-29T11:27:56;19.50;99.90
37300;DHT22;23184;51.902;12.836;2023-07-29T11:30:22;19.30;99.90
37300;DHT22;23184;51.902;12.836;2023-07-29T11:32:55;19.20;99.90
37300;DHT22;23184;51.902;12.836;2023-07-29T11:35:21;19.10;99.90
37300;DHT22;23184;51.902;12.836;2023-07-29T11:37:48;19.00;99.90
37300;DHT22;23184;51.902;12.836;2023-07-29T11:40:16;19.00;99.90
37300;DHT22;23184;51.902;12.836;2023-07-29T11:42:41;19.00;99.90
37300;DHT22;23184;51.902;12.836;2023-07-29T11:45:07;18.90;99.90
37300;DHT22;23184;51.902;12.836;2023-07-29T11:47:33;19.00;99.90
37300;DHT22;23184;51.902;12.836;2023-07-29T11:50:07;19.00;99.90
37300;DHT22;23184;51.902;12.836;2023-07-29T11:52:35;19.10;99.90
37300;DHT22;23184;51.902;12.836;2023-07-29T11:55:01;19.10;99.90
37300;DHT22;23184;51.902;12.836;2023-07-29T11:57:29;19.20;99.90
37300;DHT22;23184;51.902;12.836;2023-07-29T11:59:55;19.40;99.90
37300;DHT22;23184;51.902;12.836;2023-07-29T12:02:21;19.90;99.90
37300;DHT22;23184;51.902;12.836;2023-07-29T12:04:48;20.80;99.90
37300;DHT22;23184;51.902;12.836;2023-07-29T12:07:14;21.10;99.90
37300;DHT22;23184;51.902;12.836;2023-07-29T12:09:41;21.50;99.90
37300;DHT22;23184;51.902;12.836;2023-07-29T12:12:07;21.70;99.90
37300;DHT22;23184;51.902;12.836;2023-07-29T12:14:34;21.90;99.90
37300;DHT22;23184;51.902;12.836;2023-07-29T12:17:00;22.30;99.90
37300;DHT22;23184;51.902;12.836;2023-07-29T12:19:35;22.60;99.90
37300;DHT22;23184;51.902;12.836;2023-07-29T12:22:06;22.70;99.90
37300;DHT22;23184;51.902;12.836;2023-07-29T12:24:33;22.60;99.90
37300;DHT22;23184;51.902;12.836;2023-07-29T12:26:59;22.40;99.90
37300;DHT22;23184;51.902;12.836;2023-07-29T12:29:25;22.20;99.90
37300;DHT22;23184;51.902;12.836;2023-07-29T12:32:01;22.10;99.90
37300;DHT22;23184;51.902;12.836;2023-07-29T12:34:28;21.90;99.90
37300;DHT22;23184;51.902;12.836;2023-07-29T12:36:55;21.40;99.90
37300;DHT22;23184;51.902;12.836;2023-07-29T12:39:33;20.90;99.90
37300;DHT22;23184;51.902;12.836;2023-07-29T12:42:00;20.80;99.90
37300;DHT22;23184;51.902;12.836;2023-07-29T12:44:33;20.70;99.90
37300;DHT22;23184;51.902;12.836;2023-07-29T12:47:02;20.60;99.90
37300;DHT22;23184;51.902;12.836;2023-07-29T12:49:29;20.60;99.90
37300;DHT22;23184;51.902;12.836;2023-07-29T12:51:58;20.50;99.90
37300;DHT22;23184;51.902;12.836;2023-07-29T12:54:23;20.50;99.90
37300;DHT22;23184;51.902;12.836;2023-07-29T12:56:49;20.50;99.90
37300;DHT22;23184;51.902;12.836;2023-07-29T12:59:15;20.50;99.90
37300;DHT22;23184;51.902;12.836;2023-07-29T13:01:40;20.90;99.90
37300;DHT22;23184;51.902;12.836;2023-07-29T13:04:06;21.30;99.90
37300;DHT22;23184;51.902;12.836;2023-07-29T13:06:31;21.40;99.90
37300;DHT22;23184;51.902;12.836;2023-07-29T13:08:57;21.40;99.90
37300;DHT22;23184;51.902;12.836;2023-07-29T13:11:22;21.40;99.90
37300;DHT22;23184;51.902;12.836;2023-07-29T13:13:48;21.30;99.90
37300;DHT22;23184;51.902;12.836;2023-07-29T13:16:13;21.40;99.90
37300;DHT22;23184;51.902;12.836;2023-07-29T13:18:39;21.40;99.90
37300;DHT22;23184;51.902;12.836;2023-07-29T13:21:05;21.70;99.90
37300;DHT22;23184;51.902;12.836;2023-07-29T13:23:31;22.00;99.90
37300;DHT22;23184;51.902;12.836;2023-07-29T13:25:57;21.90;99.90
37300;DHT22;23184;51.902;12.836;2023-07-29T13:28:23;22.00;99.90
37300;DHT22;23184;51.902;12.836;2023-07-29T13:30:49;22.00;99.90
37300;DHT22;23184;51.902;12.836;2023-07-29T13:33:14;21.80;99.90
37300;DHT22;23184;51.902;12.836;2023-07-29T13:35:40;21.80;99.90
37300;DHT22;23184;51.902;12.836;2023-07-29T13:38:05;22.10;99.90
37300;DHT22;23184;51.902;12.836;2023-07-29T13:40:31;22.00;99.90
37300;DHT22;23184;51.902;12.836;2023-07-29T13:42:57;22.00;99.90
37300;DHT22;23184;51.902;12.836;2023-07-29T13:45:22;22.60;99.90
37300;DHT22;23184;51.902;12.836;2023-07-29T13:47:48;23.00;99.90
37300;DHT22;23184;51.902;12.836;2023-07-29T13:50:14;24.00;99.90
37300;DHT22;23184;51.902;12.836;2023-07-29T13:52:40;25.40;99.90
37300;DHT22;23184;51.902;12.836;2023-07-29T13:55:06;26.80;99.90
37300;DHT22;23184;51.902;12.836;2023-07-29T13:57:32;27.30;99.90
37300;DHT22;23184;51.902;12.836;2023-07-29T13:59:58;28.10;99.90
37300;DHT22;23184;51.902;12.836;2023-07-29T14:02:24;27.00;99.90
37300;DHT22;23184;51.902;12.836;2023-07-29T14:04:51;27.10;99.90
37300;DHT22;23184;51.902;12.836;2023-07-29T14:07:17;26.90;99.90
37300;DHT22;23184;51.902;12.836;2023-07-29T14:09:43;27.10;99.90
37300;DHT22;23184;51.902;12.836;2023-07-29T14:12:08;25.90;99.90
37300;DHT22;23184;51.902;12.836;2023-07-29T14:14:40;25.00;99.90
37300;DHT22;23184;51.902;12.836;2023-07-29T14:17:05;24.40;99.90
37300;DHT22;23184;51.902;12.836;2023-07-29T14:19:31;24.00;99.90
37300;DHT22;23184;51.902;12.836;2023-07-29T14:21:57;23.70;99.90
37300;DHT22;23184;51.902;12.836;2023-07-29T14:24:23;23.50;99.90
37300;DHT22;23184;51.902;12.836;2023-07-29T14:26:49;23.10;99.90
37300;DHT22;23184;51.902;12.836;2023-07-29T14:29:14;22.70;99.90
37300;DHT22;23184;51.902;12.836;2023-07-29T14:31:40;22.50;99.90
37300;DHT22;23184;51.902;12.836;2023-07-29T14:34:05;22.30;99.90
37300;DHT22;23184;51.902;12.836;2023-07-29T14:36:31;22.20;99.90
37300;DHT22;23184;51.902;12.836;2023-07-29T14:38:56;22.10;99.90
37300;DHT22;23184;51.902;12.836;2023-07-29T14:41:22;22.20;99.90
37300;DHT22;23184;51.902;12.836;2023-07-29T14:43:47;22.10;99.90
37300;DHT22;23184;51.902;12.836;2023-07-29T14:46:13;22.10;99.90
37300;DHT22;23184;51.902;12.836;2023-07-29T14:48:38;22.10;99.90
37300;DHT22;23184;51.902;12.836;2023-07-29T14:51:04;22.00;99.90
37300;DHT22;23184;51.902;12.836;2023-07-29T14:53:29;22.10;99.90
37300;DHT22;23184;51.902;12.836;2023-07-29T14:55:55;22.20;99.90
37300;DHT22;23184;51.902;12.836;2023-07-29T14:58:20;22.40;99.90
37300;DHT22;23184;51.902;12.836;2023-07-29T15:00:46;22.80;99.90
37300;DHT22;23184;51.902;12.836;2023-07-29T15:03:12;22.60;99.90
37300;DHT22;23184;51.902;12.836;2023-07-29T15:05:37;22.30;99.90
37300;DHT22;23184;51.902;12.836;2023-07-29T15:08:03;22.10;99.90
37300;DHT22;23184;51.902;12.836;2023-07-29T15:10:28;21.90;99.90
37300;DHT22;23184;51.902;12.836;2023-07-29T15:12:54;21.70;99.90
37300;DHT22;23184;51.902;12.836;2023-07-29T15:15:19;20.80;99.90
37300;DHT22;23184;51.902;12.836;2023-07-29T15:17:45;20.30;99.90
37300;DHT22;23184;51.902;12.836;2023-07-29T15:20:11;20.10;99.90